Time;durP1;ratioP1;P1;durP2;ratioP2;P2;SDS_P1;SDS_P2;PMS_P1;PMS_P2;Temp;Humidity;BMP_temperature;BMP_pressure;BME280_temperature;BME280_humidity;BME280_pressure;Samples;Min_cycle;Max_cycle;Signal;HPM_P1;HPM_P2
2022/03/08 00:01:51;;;;;;;4.43;1.83;;;2.40;76.80;;;;;;5040723;28;20051;-77
2022/03/08 00:04:18;;;;;;;4.43;1.60;;;2.40;76.80;;;;;;5075127;28;20036;-77
2022/03/08 00:06:45;;;;;;;4.07;1.40;;;2.40;76.80;;;;;;5057028;28;20056;-77
2022/03/08 00:09:12;;;;;;;4.30;1.60;;;2.40;76.90;;;;;;5024195;28;20102;-77
2022/03/08 00:11:40;;;;;;;3.73;1.60;;;2.40;76.90;;;;;;5041131;28;20044;-76
2022/03/08 00:14:09;;;;;;;5.07;1.83;;;2.40;76.90;;;;;;5024491;28;20044;-76
2022/03/08 00:16:36;;;;;;;5.10;1.90;;;2.40;76.80;;;;;;5040908;28;20063;-77
2022/03/08 00:19:07;;;;;;;4.00;1.60;;;2.40;76.90;;;;;;5041583;28;20127;-77
2022/03/08 00:21:34;;;;;;;3.53;1.60;;;2.30;76.80;;;;;;5040441;28;20056;-77
2022/03/08 00:24:01;;;;;;;4.83;1.90;;;2.30;76.80;;;;;;5074611;28;20350;-77
2022/03/08 00:26:28;;;;;;;3.70;1.80;;;2.40;76.90;;;;;;5035571;28;20048;-76
2022/03/08 00:28:55;;;;;;;6.37;2.97;;;2.30;76.80;;;;;;5039979;28;20041;-77
2022/03/08 00:31:22;;;;;;;4.57;2.10;;;2.30;76.90;;;;;;5039833;28;20045;-76
2022/03/08 00:33:49;;;;;;;3.53;1.60;;;2.30;77.00;;;;;;5056161;28;20055;-76
2022/03/08 00:36:17;;;;;;;4.03;1.83;;;2.20;77.00;;;;;;5039698;28;20131;-77
2022/03/08 00:38:46;;;;;;;5.03;1.93;;;2.20;77.10;;;;;;5074060;28;20060;-77
2022/03/08 00:41:13;;;;;;;2.60;1.47;;;2.20;77.10;;;;;;5056228;28;20033;-77
2022/03/08 00:43:41;;;;;;;3.33;1.60;;;2.20;77.00;;;;;;5040039;28;20039;-77
2022/03/08 00:46:11;;;;;;;3.50;1.50;;;2.20;77.00;;;;;;5055600;28;20504;-76
2022/03/08 00:48:39;;;;;;;2.33;1.20;;;2.20;77.00;;;;;;5071488;28;20040;-76
2022/03/08 00:51:06;;;;;;;4.10;1.60;;;2.20;77.10;;;;;;5039780;28;20079;-76
2022/03/08 00:53:34;;;;;;;3.47;1.60;;;2.20;77.10;;;;;;5039392;28;20056;-76
2022/03/08 00:56:01;;;;;;;3.73;1.43;;;2.20;77.00;;;;;;5073559;28;20464;-77
2022/03/08 00:58:29;;;;;;;3.37;1.60;;;2.20;76.90;;;;;;5056173;28;20046;-76
2022/03/08 01:00:56;;;;;;;3.40;1.73;;;2.20;76.90;;;;;;5055497;28;20135;-76
2022/03/08 01:03:24;;;;;;;4.13;1.50;;;2.20;76.90;;;;;;5038341;28;20381;-76
2022/03/08 01:05:51;;;;;;;4.30;1.83;;;2.20;76.90;;;;;;5038652;28;20052;-76
2022/03/08 01:08:20;;;;;;;3.03;1.47;;;2.20;76.90;;;;;;5055867;28;20037;-76
2022/03/08 01:10:47;;;;;;;4.27;1.70;;;2.20;76.90;;;;;;5039042;28;20463;-76
2022/03/08 01:13:15;;;;;;;3.70;1.73;;;2.20;77.50;;;;;;5022843;28;20048;-76
2022/03/08 01:15:42;;;;;;;3.47;1.50;;;2.20;76.80;;;;;;5055691;28;20060;-77
2022/03/08 01:18:10;;;;;;;3.10;1.70;;;2.10;76.80;;;;;;5039007;28;20045;-77
2022/03/08 01:20:37;;;;;;;3.53;1.60;;;2.20;76.90;;;;;;5038515;28;20116;-77
2022/03/08 01:23:05;;;;;;;4.90;2.10;;;2.10;76.90;;;;;;5038649;28;20049;-77
2022/03/08 01:25:32;;;;;;;4.00;1.83;;;2.10;76.90;;;;;;5037798;28;20041;-76
2022/03/08 01:27:59;;;;;;;4.07;2.13;;;2.10;76.80;;;;;;5021899;28;20036;-77
2022/03/08 01:30:27;;;;;;;3.53;1.53;;;2.10;76.70;;;;;;5055191;28;20147;-77
2022/03/08 01:32:53;;;;;;;3.90;1.70;;;2.10;76.70;;;;;;5054921;28;20074;-77
2022/03/08 01:35:21;;;;;;;3.67;1.70;;;2.10;76.80;;;;;;5055303;28;20440;-77
2022/03/08 01:37:51;;;;;;;4.13;1.77;;;2.10;76.80;;;;;;5038583;28;20041;-77
2022/03/08 01:40:19;;;;;;;4.10;1.90;;;2.00;77.40;;;;;;5054790;28;20091;-77
2022/03/08 01:42:49;;;;;;;5.33;2.30;;;2.10;76.80;;;;;;5055180;28;20042;-77
2022/03/08 01:45:20;;;;;;;3.37;1.53;;;2.00;76.80;;;;;;5035052;28;20052;-77
2022/03/08 01:47:47;;;;;;;2.63;1.10;;;2.00;76.80;;;;;;5018690;28;20041;-77
2022/03/08 01:50:15;;;;;;;3.83;1.80;;;2.00;76.90;;;;;;5018503;28;20753;-77
2022/03/08 01:52:43;;;;;;;3.93;1.60;;;2.00;76.90;;;;;;5034836;28;20063;-77
2022/03/08 01:55:12;;;;;;;4.70;1.77;;;2.00;76.90;;;;;;5018394;28;20048;-77
2022/03/08 01:57:40;;;;;;;3.57;1.63;;;2.00;76.90;;;;;;5018662;28;20136;-77
2022/03/08 02:00:11;;;;;;;4.23;2.07;;;1.90;76.90;;;;;;5018757;28;20044;-77
2022/03/08 02:02:39;;;;;;;2.60;1.43;;;1.90;77.00;;;;;;5041278;28;20510;-77
2022/03/08 02:05:07;;;;;;;3.00;1.37;;;1.90;77.00;;;;;;5019884;28;20037;-77
2022/03/08 02:07:34;;;;;;;2.83;1.17;;;1.90;77.00;;;;;;5019868;28;20087;-77
2022/03/08 02:10:01;;;;;;;2.60;0.90;;;1.80;77.00;;;;;;5052882;28;20090;-77
2022/03/08 02:12:28;;;;;;;2.60;1.17;;;1.80;77.10;;;;;;5018306;28;20880;-77
2022/03/08 02:14:55;;;;;;;3.63;1.67;;;1.80;77.10;;;;;;5034527;28;20048;-77
2022/03/08 02:17:22;;;;;;;3.80;1.53;;;1.80;77.10;;;;;;5001897;28;20048;-77
2022/03/08 02:19:49;;;;;;;3.40;1.40;;;1.80;77.20;;;;;;5018389;28;20044;-78
2022/03/08 02:22:16;;;;;;;2.70;1.13;;;1.80;77.20;;;;;;5034568;28;20048;-78
2022/03/08 02:24:46;;;;;;;2.73;1.07;;;1.70;77.20;;;;;;5034305;28;20052;-78
2022/03/08 02:27:14;;;;;;;2.63;1.00;;;1.70;77.30;;;;;;5018006;28;20037;-79
2022/03/08 02:29:41;;;;;;;2.60;1.10;;;1.70;77.30;;;;;;5059471;28;20493;-79
2022/03/08 02:32:08;;;;;;;3.60;1.10;;;1.70;77.30;;;;;;5037647;28;20094;-78
2022/03/08 02:34:35;;;;;;;2.43;1.10;;;1.70;77.30;;;;;;5054570;28;20048;-78
2022/03/08 02:37:11;;;;;;;3.20;1.40;;;1.60;77.30;;;;;;5021418;28;20459;-78
2022/03/08 02:39:39;;;;;;;2.17;0.90;;;1.60;77.30;;;;;;5054417;28;20055;-78
2022/03/08 02:42:08;;;;;;;1.90;0.90;;;1.60;77.30;;;;;;5037597;28;20148;-78
2022/03/08 02:44:36;;;;;;;2.73;1.10;;;1.60;77.30;;;;;;5017735;28;20448;-78
2022/03/08 02:47:05;;;;;;;2.97;1.30;;;1.60;77.30;;;;;;5034428;28;20049;-78
2022/03/08 02:49:32;;;;;;;2.97;1.17;;;1.60;77.30;;;;;;5034465;28;20045;-78
2022/03/08 02:51:59;;;;;;;2.77;1.00;;;1.60;77.30;;;;;;5034598;28;20045;-78
2022/03/08 02:54:26;;;;;;;2.83;1.20;;;1.60;77.20;;;;;;5017839;28;20508;-78
2022/03/08 02:56:54;;;;;;;3.23;1.30;;;1.60;77.10;;;;;;5034415;28;20045;-78
2022/03/08 02:59:22;;;;;;;2.57;1.13;;;1.60;77.00;;;;;;5033657;28;20071;-79
2022/03/08 03:01:49;;;;;;;2.77;0.90;;;1.70;77.00;;;;;;5034114;28;20045;-79
2022/03/08 03:04:17;;;;;;;2.73;1.00;;;1.70;76.90;;;;;;5050920;28;20119;-79
2022/03/08 03:06:45;;;;;;;6.47;1.13;;;1.60;76.80;;;;;;5034174;28;20079;-78
2022/03/08 03:09:13;;;;;;;2.40;0.90;;;1.60;76.90;;;;;;5050673;28;20082;-79
2022/03/08 03:11:40;;;;;;;2.43;0.80;;;1.60;76.80;;;;;;5052034;28;20045;-78
2022/03/08 03:14:07;;;;;;;2.20;1.13;;;1.60;76.90;;;;;;5021256;28;20049;-78
2022/03/08 03:16:38;;;;;;;2.10;0.87;;;1.60;76.80;;;;;;5038381;28;20504;-78
2022/03/08 03:19:05;;;;;;;3.00;1.47;;;1.60;76.90;;;;;;5055528;28;20073;-78
2022/03/08 03:21:32;;;;;;;2.33;0.90;;;1.60;76.80;;;;;;5037623;28;20110;-78
2022/03/08 03:24:00;;;;;;;3.70;1.03;;;1.60;76.70;;;;;;5038208;28;20044;-78
2022/03/08 03:26:27;;;;;;;2.70;1.30;;;1.60;76.60;;;;;;5037654;28;20060;-78
2022/03/08 03:28:54;;;;;;;3.23;1.30;;;1.60;77.20;;;;;;5037458;28;20045;-78
2022/03/08 03:31:21;;;;;;;2.67;1.40;;;1.60;76.50;;;;;;5037447;28;20055;-78
2022/03/08 03:33:48;;;;;;;2.77;0.97;;;1.60;76.50;;;;;;5037613;28;20148;-78
2022/03/08 03:36:15;;;;;;;3.20;1.23;;;1.60;76.40;;;;;;5053930;28;20045;-78
2022/03/08 03:38:42;;;;;;;2.50;1.00;;;1.60;76.50;;;;;;5037413;28;20059;-78
2022/03/08 03:41:10;;;;;;;3.53;1.07;;;1.60;76.40;;;;;;5037283;28;20045;-78
2022/03/08 03:43:40;;;;;;;3.23;1.30;;;1.60;76.40;;;;;;5037090;28;20045;-78
2022/03/08 03:46:07;;;;;;;2.93;1.50;;;1.60;76.30;;;;;;5037154;28;20072;-78
2022/03/08 03:48:34;;;;;;;3.40;1.50;;;1.60;76.30;;;;;;5054877;28;20531;-78
2022/03/08 03:51:02;;;;;;;2.60;1.07;;;1.50;76.20;;;;;;5020702;28;20049;-78
2022/03/08 03:53:29;;;;;;;5.07;1.20;;;1.50;76.20;;;;;;5036960;28;20458;-78
2022/03/08 03:55:56;;;;;;;2.97;1.10;;;1.50;76.20;;;;;;5053645;28;20049;-78
2022/03/08 03:58:24;;;;;;;2.20;0.90;;;1.50;76.20;;;;;;5020582;28;20144;-78
2022/03/08 04:00:51;;;;;;;3.27;1.70;;;1.50;76.20;;;;;;5054678;28;20037;-78
2022/03/08 04:03:19;;;;;;;2.57;1.10;;;1.50;76.30;;;;;;5035727;28;20501;-78
2022/03/08 04:05:46;;;;;;;3.20;1.23;;;1.50;76.30;;;;;;5036419;28;20493;-78
2022/03/08 04:08:13;;;;;;;2.17;1.00;;;1.40;76.30;;;;;;5036702;28;20049;-78
2022/03/08 04:10:41;;;;;;;2.73;1.10;;;1.40;76.30;;;;;;5036911;28;20098;-79
2022/03/08 04:13:08;;;;;;;2.83;1.23;;;1.40;76.30;;;;;;5036700;28;20060;-78
2022/03/08 04:15:35;;;;;;;2.03;0.90;;;1.40;76.30;;;;;;5036770;28;20095;-79
2022/03/08 04:18:02;;;;;;;2.73;1.03;;;1.40;76.30;;;;;;5036694;28;20037;-79
2022/03/08 04:20:29;;;;;;;2.13;0.90;;;1.40;76.30;;;;;;5036375;28;20102;-78
2022/03/08 04:22:56;;;;;;;2.77;0.83;;;1.40;76.30;;;;;;5020318;28;20543;-78
2022/03/08 04:25:23;;;;;;;2.63;1.27;;;1.40;76.30;;;;;;5036750;28;20482;-78
2022/03/08 04:27:50;;;;;;;2.63;0.70;;;1.30;76.30;;;;;;5019718;28;20481;-78
2022/03/08 04:30:17;;;;;;;3.00;1.37;;;1.30;76.20;;;;;;5054112;28;20467;-78
2022/03/08 04:32:44;;;;;;;3.23;1.10;;;1.30;76.20;;;;;;5019437;28;20053;-78
2022/03/08 04:35:12;;;;;;;2.83;1.50;;;1.40;76.20;;;;;;5036045;28;20052;-78
2022/03/08 04:37:39;;;;;;;2.73;1.00;;;1.40;76.10;;;;;;5036500;28;20397;-78
2022/03/08 04:40:07;;;;;;;3.33;1.27;;;1.40;76.10;;;;;;5019747;28;20381;-76
2022/03/08 04:42:34;;;;;;;2.73;1.13;;;1.30;76.10;;;;;;5019266;28;20060;-76
2022/03/08 04:45:02;;;;;;;2.43;1.07;;;1.30;76.10;;;;;;5042798;28;20423;-76
2022/03/08 04:47:29;;;;;;;3.37;1.40;;;1.40;76.10;;;;;;5056169;28;20489;-76
2022/03/08 04:49:57;;;;;;;2.97;1.10;;;1.40;76.00;;;;;;5055676;28;20447;-76
2022/03/08 04:52:24;;;;;;;2.77;1.30;;;1.40;75.90;;;;;;5055826;28;20062;-76
2022/03/08 04:54:51;;;;;;;2.60;1.30;;;1.30;75.90;;;;;;5055716;28;20052;-76
2022/03/08 04:57:21;;;;;;;2.67;1.37;;;1.40;76.00;;;;;;5072468;28;20040;-76
2022/03/08 04:59:48;;;;;;;2.73;0.93;;;1.40;75.90;;;;;;5038985;28;20052;-77
2022/03/08 05:02:15;;;;;;;3.00;1.03;;;1.30;75.70;;;;;;5055362;28;20550;-76
2022/03/08 05:04:42;;;;;;;2.17;0.80;;;1.40;75.70;;;;;;5038523;28;20493;-77
2022/03/08 05:07:09;;;;;;;3.60;1.40;;;1.40;75.80;;;;;;5039000;28;20042;-77
2022/03/08 05:09:36;;;;;;;2.20;1.00;;;1.30;75.70;;;;;;5055647;28;20043;-76
2022/03/08 05:12:03;;;;;;;3.67;1.20;;;1.30;75.70;;;;;;5058307;28;20116;-77
2022/03/08 05:14:32;;;;;;;2.87;1.10;;;1.30;75.70;;;;;;5057995;28;20436;-76
2022/03/08 05:16:59;;;;;;;2.77;1.20;;;1.40;75.80;;;;;;5041265;28;20056;-76
2022/03/08 05:19:26;;;;;;;2.37;1.03;;;1.30;75.70;;;;;;5075639;28;20073;-76
2022/03/08 05:21:53;;;;;;;2.47;1.00;;;1.30;75.70;;;;;;5075236;28;20040;-77
2022/03/08 05:24:20;;;;;;;2.80;1.20;;;1.30;75.70;;;;;;5057938;28;20400;-76
2022/03/08 05:26:47;;;;;;;2.57;1.10;;;1.30;75.70;;;;;;5038371;28;20055;-76
2022/03/08 05:29:14;;;;;;;2.67;1.03;;;1.30;75.70;;;;;;5038513;28;20040;-76
2022/03/08 05:31:41;;;;;;;2.43;0.80;;;1.30;76.00;;;;;;5038535;28;20053;-76
2022/03/08 05:34:09;;;;;;;2.17;0.80;;;1.30;75.60;;;;;;5054674;28;20048;-76
2022/03/08 05:36:37;;;;;;;1.70;0.70;;;1.30;75.60;;;;;;5054778;28;20048;-76
2022/03/08 05:39:05;;;;;;;2.70;1.10;;;1.30;75.60;;;;;;5055058;28;20136;-76
2022/03/08 05:41:32;;;;;;;2.33;1.10;;;1.30;75.60;;;;;;5050246;28;20496;-76
2022/03/08 05:43:59;;;;;;;2.70;1.27;;;1.30;75.60;;;;;;5038601;28;20078;-77
2022/03/08 05:46:26;;;;;;;3.67;1.10;;;1.30;75.50;;;;;;5041920;28;20044;-77
2022/03/08 05:48:53;;;;;;;3.27;1.30;;;1.30;75.50;;;;;;5054827;28;20044;-77
2022/03/08 05:51:21;;;;;;;2.43;1.20;;;1.30;75.50;;;;;;5038017;28;20488;-76
2022/03/08 05:53:47;;;;;;;2.90;1.07;;;1.30;75.50;;;;;;5054286;28;20048;-76
2022/03/08 05:56:15;;;;;;;2.90;1.57;;;1.30;75.50;;;;;;5054418;28;20059;-76
2022/03/08 05:58:42;;;;;;;2.97;1.23;;;1.30;75.50;;;;;;5054653;28;20065;-77
2022/03/08 06:01:09;;;;;;;2.83;1.23;;;1.30;75.50;;;;;;5054616;28;20044;-76
2022/03/08 06:03:36;;;;;;;3.27;1.73;;;1.40;75.40;;;;;;5022010;28;20064;-77
2022/03/08 06:06:03;;;;;;;4.07;1.73;;;1.30;75.30;;;;;;5021503;28;20049;-77
2022/03/08 06:08:31;;;;;;;2.60;1.30;;;1.30;75.20;;;;;;5054970;28;20115;-76
2022/03/08 06:10:58;;;;;;;3.20;1.50;;;1.30;75.20;;;;;;5037715;28;20044;-76
2022/03/08 06:13:25;;;;;;;2.90;1.07;;;1.30;75.20;;;;;;5021649;28;20511;-76
2022/03/08 06:15:52;;;;;;;4.20;1.67;;;1.30;75.20;;;;;;5054363;28;20518;-77
2022/03/08 06:18:19;;;;;;;2.83;1.40;;;1.40;75.20;;;;;;5054171;28;20496;-77
2022/03/08 06:20:46;;;;;;;2.70;1.23;;;1.30;75.10;;;;;;5037677;28;20098;-77
2022/03/08 06:23:13;;;;;;;3.60;1.67;;;1.40;75.20;;;;;;5037557;28;20040;-77
2022/03/08 06:25:40;;;;;;;3.00;1.40;;;1.30;75.20;;;;;;5054273;28;20055;-77
2022/03/08 06:28:07;;;;;;;2.97;1.40;;;1.30;75.10;;;;;;5071976;28;20443;-76
2022/03/08 06:30:34;;;;;;;2.47;1.17;;;1.40;75.20;;;;;;5021390;28;20065;-77
2022/03/08 06:33:01;;;;;;;3.90;1.47;;;1.40;75.20;;;;;;5021395;28;20389;-77
2022/03/08 06:35:29;;;;;;;2.30;1.20;;;1.30;75.50;;;;;;5054129;28;20044;-76
2022/03/08 06:37:56;;;;;;;2.97;1.40;;;1.40;75.10;;;;;;5037752;28;20032;-79
2022/03/08 06:40:24;;;;;;;3.70;1.43;;;1.40;75.00;;;;;;5020521;28;20435;-79
2022/03/08 06:42:53;;;;;;;4.10;1.40;;;1.40;75.00;;;;;;5037525;28;20131;-79
2022/03/08 06:45:20;;;;;;;3.10;1.17;;;1.50;75.00;;;;;;5046115;28;20512;-79
2022/03/08 06:47:47;;;;;;;2.87;1.60;;;1.50;75.00;;;;;;5019808;28;20094;-80
2022/03/08 06:50:17;;;;;;;4.03;1.87;;;1.50;74.90;;;;;;5038218;28;20111;-79
2022/03/08 06:52:44;;;;;;;2.73;1.33;;;1.60;74.90;;;;;;5005659;28;20135;-79
2022/03/08 06:55:11;;;;;;;2.77;1.33;;;1.60;74.80;;;;;;5038353;28;20040;-79
2022/03/08 06:57:38;;;;;;;2.80;1.10;;;1.60;74.70;;;;;;5022055;28;20048;-80
2022/03/08 07:00:07;;;;;;;2.77;1.30;;;1.60;74.70;;;;;;5021889;28;20455;-80
2022/03/08 07:02:34;;;;;;;2.97;1.43;;;1.70;74.60;;;;;;5021688;28;20056;-80
2022/03/08 07:05:04;;;;;;;3.23;1.30;;;1.70;74.50;;;;;;5021536;28;20499;-80
2022/03/08 07:07:32;;;;;;;3.13;1.20;;;1.70;74.50;;;;;;5021661;28;20048;-76
2022/03/08 07:09:59;;;;;;;2.93;1.33;;;1.80;74.50;;;;;;5038194;28;20077;-78
2022/03/08 07:12:26;;;;;;;3.70;1.60;;;1.80;74.40;;;;;;5055683;28;20069;-78
2022/03/08 07:14:53;;;;;;;3.10;1.67;;;1.90;74.40;;;;;;5055381;28;20045;-81
2022/03/08 07:17:20;;;;;;;5.07;1.47;;;1.90;74.30;;;;;;5004457;28;20122;-79
2022/03/08 07:19:48;;;;;;;3.03;1.67;;;1.90;74.20;;;;;;5037488;28;20440;-79
2022/03/08 07:22:17;;;;;;;2.50;1.30;;;2.00;74.20;;;;;;5021385;28;20049;-82
2022/03/08 07:24:44;;;;;;;3.43;1.90;;;2.00;74.10;;;;;;5006232;28;20041;-79
2022/03/08 07:27:11;;;;;;;3.53;1.83;;;2.10;74.10;;;;;;5056612;28;20060;-81
2022/03/08 07:29:39;;;;;;;3.97;1.70;;;2.10;74.00;;;;;;5005386;28;20045;-80
2022/03/08 07:32:06;;;;;;;3.30;1.87;;;2.10;73.80;;;;;;5037564;28;20060;-82
2022/03/08 07:34:33;;;;;;;4.10;2.07;;;2.20;73.80;;;;;;5037755;28;20490;-82
2022/03/08 07:37:01;;;;;;;3.27;2.33;;;2.20;74.40;;;;;;5021257;28;20041;-82
2022/03/08 07:39:28;;;;;;;4.23;2.03;;;2.20;73.70;;;;;;5021070;28;20076;-81
2022/03/08 07:41:55;;;;;;;5.87;2.23;;;2.30;73.70;;;;;;5021067;28;20498;-81
2022/03/08 07:44:23;;;;;;;3.83;1.73;;;2.30;73.60;;;;;;5021348;28;20489;-80
2022/03/08 07:46:51;;;;;;;3.70;1.90;;;2.30;74.20;;;;;;5057278;28;20059;-80
2022/03/08 07:49:18;;;;;;;4.03;2.17;;;2.40;73.60;;;;;;5040647;28;20045;-80
2022/03/08 07:51:52;;;;;;;4.70;2.37;;;2.40;73.50;;;;;;5041384;28;20040;-78
2022/03/08 07:54:21;;;;;;;4.07;1.80;;;2.40;73.30;;;;;;5056709;28;20048;-79
2022/03/08 07:56:51;;;;;;;4.50;2.07;;;2.50;73.30;;;;;;5040437;28;20068;-78
2022/03/08 07:59:18;;;;;;;4.60;2.23;;;2.50;73.30;;;;;;5074245;28;20052;-78
2022/03/08 08:01:45;;;;;;;3.30;1.53;;;2.60;73.30;;;;;;5073295;28;20139;-78
2022/03/08 08:04:13;;;;;;;4.23;2.20;;;2.60;73.20;;;;;;5056929;28;20037;-77
2022/03/08 08:06:40;;;;;;;4.23;2.17;;;2.70;73.20;;;;;;5024006;28;20045;-77
2022/03/08 08:09:07;;;;;;;4.93;2.50;;;2.70;73.10;;;;;;5056980;28;20450;-77
2022/03/08 08:11:34;;;;;;;4.50;1.97;;;2.70;73.00;;;;;;5024225;28;20326;-77
2022/03/08 08:14:01;;;;;;;4.33;2.40;;;2.80;72.90;;;;;;5057359;28;20485;-78
2022/03/08 08:16:28;;;;;;;4.03;2.40;;;2.80;72.80;;;;;;5007904;28;20045;-78
2022/03/08 08:18:58;;;;;;;3.93;2.13;;;2.90;72.80;;;;;;5057659;28;20082;-81
2022/03/08 08:21:25;;;;;;;4.40;2.13;;;3.00;72.80;;;;;;5041480;28;20112;-82
2022/03/08 08:23:55;;;;;;;3.47;2.00;;;3.00;72.70;;;;;;5076090;28;20104;-81
2022/03/08 08:26:22;;;;;;;3.93;2.33;;;3.10;72.70;;;;;;5057500;28;20043;-82
2022/03/08 08:28:49;;;;;;;3.57;1.83;;;3.10;72.50;;;;;;5040272;28;20040;-81
2022/03/08 08:31:16;;;;;;;4.33;2.23;;;3.20;72.50;;;;;;5056314;28;20045;-79
2022/03/08 08:33:44;;;;;;;4.97;2.43;;;3.20;72.40;;;;;;5023149;28;20045;-82
2022/03/08 08:36:11;;;;;;;4.10;2.30;;;3.30;72.30;;;;;;5007102;28;20048;-81
2022/03/08 08:38:38;;;;;;;4.97;2.40;;;3.40;72.30;;;;;;5023361;28;20094;-81
2022/03/08 08:41:08;;;;;;;4.73;2.37;;;3.40;72.10;;;;;;5023339;28;20055;-81
2022/03/08 08:43:35;;;;;;;5.27;2.80;;;3.50;72.10;;;;;;5056023;28;20040;-81
2022/03/08 08:46:02;;;;;;;5.80;2.30;;;3.60;71.90;;;;;;5039627;28;20346;-81
2022/03/08 08:48:29;;;;;;;3.70;2.40;;;3.60;71.80;;;;;;5055760;28;20052;-81
2022/03/08 08:50:56;;;;;;;3.63;1.93;;;3.70;71.70;;;;;;5055984;28;20098;-81
2022/03/08 08:53:24;;;;;;;5.57;2.97;;;3.70;71.60;;;;;;5039329;28;20094;-81
2022/03/08 08:55:51;;;;;;;5.37;2.93;;;3.80;71.50;;;;;;5039420;28;20060;-81
2022/03/08 08:58:18;;;;;;;5.20;2.70;;;3.80;71.40;;;;;;5039246;28;20044;-81
2022/03/08 09:00:45;;;;;;;5.83;3.03;;;3.90;71.20;;;;;;5022929;28;20090;-81
2022/03/08 09:03:16;;;;;;;7.30;3.07;;;4.00;71.00;;;;;;5039042;28;20071;-79
2022/03/08 09:05:49;;;;;;;4.13;2.30;;;4.10;70.70;;;;;;5041450;28;20068;-79
2022/03/08 09:08:23;;;;;;;5.17;2.90;;;4.10;70.70;;;;;;5073631;28;20045;-79
2022/03/08 09:10:52;;;;;;;5.33;2.33;;;4.20;70.50;;;;;;5050578;28;20684;-80
2022/03/08 09:13:19;;;;;;;5.60;2.50;;;4.30;70.50;;;;;;5074232;28;20064;-79
2022/03/08 09:15:47;;;;;;;4.43;2.50;;;4.40;70.30;;;;;;5073029;28;20043;-80
2022/03/08 09:18:16;;;;;;;4.57;2.43;;;4.50;70.10;;;;;;5072277;28;20052;-79
2022/03/08 09:20:43;;;;;;;5.77;2.97;;;4.50;69.60;;;;;;5036416;28;20056;-78
2022/03/08 09:23:11;;;;;;;4.83;2.73;;;4.60;69.50;;;;;;5053214;28;20508;-79
2022/03/08 09:25:38;;;;;;;5.03;2.67;;;4.70;69.30;;;;;;5052766;28;20046;-78
2022/03/08 09:28:06;;;;;;;5.07;2.30;;;4.80;69.20;;;;;;5036121;28;20409;-78
2022/03/08 09:30:35;;;;;;;3.83;2.00;;;4.80;69.00;;;;;;5054666;28;20052;-80
2022/03/08 09:33:03;;;;;;;3.33;1.95;;;4.90;68.80;;;;;;5040155;28;20047;-80
2022/03/08 09:35:30;;;;;;;3.67;2.08;;;5.00;68.80;;;;;;5038915;28;20357;-76
2022/03/08 09:37:58;;;;;;;5.45;3.45;;;5.00;68.70;;;;;;5055045;28;20404;-77
2022/03/08 09:40:25;;;;;;;6.28;3.28;;;5.10;68.00;;;;;;5054959;28;20106;-77
2022/03/08 09:42:53;;;;;;;4.18;2.60;;;5.20;67.60;;;;;;5072950;28;20049;-81
2022/03/08 09:45:20;;;;;;;4.30;2.60;;;5.20;67.60;;;;;;5054940;28;20409;-79
2022/03/08 09:47:49;;;;;;;4.70;2.78;;;5.30;67.50;;;;;;5060882;28;20043;-79
2022/03/08 09:50:36;;;;;;;4.35;2.45;;;5.40;67.30;;;;;;5044251;28;20080;-80
2022/03/08 09:56:57;;;;;;;4.78;2.80;;;5.50;66.70;;;;;;5072760;28;20484;-79
2022/03/08 09:59:36;;;;;;;4.20;2.75;;;5.50;66.60;;;;;;5054912;28;20067;-80
2022/03/08 10:02:04;;;;;;;4.30;2.67;;;5.60;66.10;;;;;;5070996;28;20048;-80
2022/03/08 10:04:32;;;;;;;4.25;2.88;;;5.60;65.90;;;;;;5071274;28;20512;-80
2022/03/08 10:07:25;;;;;;;3.72;2.45;;;5.60;66.00;;;;;;5054839;28;20040;-79
2022/03/08 10:10:00;;;;;;;4.28;2.42;;;5.70;65.80;;;;;;5055693;28;20043;-80
2022/03/08 10:12:57;;;;;;;5.40;2.42;;;5.70;65.80;;;;;;5073298;28;20389;-77
2022/03/08 10:15:24;;;;;;;5.78;2.25;;;5.70;65.60;;;;;;5054739;28;20424;-76
2022/03/08 10:17:52;;;;;;;4.68;2.50;;;5.80;65.60;;;;;;5055015;28;20052;-76
2022/03/08 10:20:31;;;;;;;5.35;2.75;;;5.90;65.60;;;;;;5054674;28;20457;-76
2022/03/08 10:22:59;;;;;;;6.57;3.20;;;5.90;64.90;;;;;;5037865;28;20435;-77
2022/03/08 10:25:29;;;;;;;4.72;2.47;;;6.00;64.80;;;;;;5052337;28;20159;-77
2022/03/08 10:27:57;;;;;;;4.65;2.65;;;6.10;64.90;;;;;;5054730;28;20071;-76
2022/03/08 10:30:29;;;;;;;3.40;2.10;;;6.10;64.90;;;;;;5054792;28;20040;-76
2022/03/08 10:33:04;;;;;;;5.53;2.30;;;6.20;64.80;;;;;;5055595;28;20544;-76
2022/03/08 10:35:37;;;;;;;4.35;2.42;;;6.30;64.70;;;;;;5076245;28;20040;-76
2022/03/08 10:38:08;;;;;;;5.22;2.60;;;6.30;64.50;;;;;;5038936;28;20049;-76
2022/03/08 10:40:35;;;;;;;5.38;2.28;;;6.30;64.10;;;;;;5054659;28;20090;-76
2022/03/08 10:43:15;;;;;;;6.22;2.97;;;6.30;64.10;;;;;;5037812;28;20431;-76
2022/03/08 10:45:48;;;;;;;3.85;2.13;;;6.40;63.80;;;;;;5053895;28;20056;-76
2022/03/08 10:48:18;;;;;;;3.53;1.85;;;6.40;63.80;;;;;;5072247;28;20090;-77
2022/03/08 10:50:50;;;;;;;4.53;2.70;;;6.50;64.00;;;;;;5054175;28;20408;-77
2022/03/08 10:53:17;;;;;;;3.75;2.30;;;6.50;63.60;;;;;;5072539;28;20048;-77
2022/03/08 10:55:47;;;;;;;3.63;1.85;;;6.60;63.70;;;;;;5037668;28;20044;-76
2022/03/08 10:58:16;;;;;;;4.00;2.55;;;6.60;63.50;;;;;;5069757;28;20036;-76
2022/03/08 11:00:46;;;;;;;3.75;2.30;;;6.70;63.50;;;;;;5038537;28;20053;-76
2022/03/08 11:03:15;;;;;;;3.83;2.53;;;6.70;63.20;;;;;;5067435;28;20048;-77
2022/03/08 11:05:48;;;;;;;4.40;2.15;;;6.80;63.00;;;;;;5058088;28;20043;-76
2022/03/08 11:08:17;;;;;;;4.65;2.17;;;6.80;62.70;;;;;;5056184;28;20595;-76
2022/03/08 11:10:45;;;;;;;3.97;2.20;;;6.90;62.60;;;;;;5005092;28;20047;-77
2022/03/08 11:13:14;;;;;;;3.47;2.10;;;6.90;62.20;;;;;;5064259;28;20467;-77
2022/03/08 11:15:45;;;;;;;3.75;2.00;;;7.00;62.30;;;;;;5059647;28;20048;-76
2022/03/08 11:18:15;;;;;;;4.10;2.20;;;7.00;62.20;;;;;;5058140;28;20047;-76
2022/03/08 11:20:45;;;;;;;4.30;2.20;;;7.10;62.00;;;;;;5058017;28;20048;-76
2022/03/08 11:23:13;;;;;;;4.82;2.15;;;7.10;61.90;;;;;;5074374;28;20040;-77
2022/03/08 11:25:43;;;;;;;5.68;2.13;;;7.20;61.80;;;;;;5074435;28;20055;-77
2022/03/08 11:28:18;;;;;;;2.90;1.63;;;7.30;61.40;;;;;;5075315;28;20115;-77
2022/03/08 11:30:45;;;;;;;3.55;1.75;;;7.40;61.40;;;;;;5056938;28;20051;-77
2022/03/08 11:33:23;;;;;;;3.55;1.73;;;7.40;61.10;;;;;;5058124;28;20105;-77
2022/03/08 11:35:59;;;;;;;3.75;1.80;;;7.50;60.90;;;;;;5077612;28;20152;-77
2022/03/08 11:38:27;;;;;;;3.63;1.98;;;7.60;60.40;;;;;;5060761;28;20803;-76
2022/03/08 11:40:57;;;;;;;3.38;1.65;;;7.60;59.80;;;;;;5060944;28;20052;-77
2022/03/08 11:43:41;;;;;;;1.83;1.10;;;7.70;59.70;;;;;;5058512;28;20044;-76
2022/03/08 11:46:11;;;;;;;2.70;1.60;;;7.80;59.70;;;;;;5054491;28;20072;-83
2022/03/08 11:48:56;;;;;;;3.65;1.45;;;7.90;59.70;;;;;;5043148;28;20081;-82
2022/03/08 11:51:29;;;;;;;3.95;1.55;;;7.90;58.30;;;;;;5046002;28;20041;-83
2022/03/08 11:54:08;;;;;;;3.08;1.55;;;7.90;58.80;;;;;;5045564;28;20514;-83
2022/03/08 11:56:48;;;;;;;2.80;1.63;;;8.00;58.50;;;;;;5059267;28;20048;-82
2022/03/08 11:59:15;;;;;;;3.00;1.42;;;8.00;58.30;;;;;;5074645;28;20068;-84
2022/03/08 12:01:43;;;;;;;3.72;1.83;;;8.00;58.50;;;;;;5040691;28;20052;-83
2022/03/08 12:04:13;;;;;;;3.22;1.52;;;8.00;58.00;;;;;;5040124;28;20341;-80
2022/03/08 12:06:47;;;;;;;2.70;1.30;;;8.10;57.90;;;;;;5038367;28;20485;-81
2022/03/08 12:09:18;;;;;;;3.00;1.17;;;8.10;57.80;;;;;;5058890;28;20166;-79
2022/03/08 12:11:57;;;;;;;3.33;1.33;;;8.20;57.80;;;;;;5020806;28;20417;-83
2022/03/08 12:14:43;;;;;;;1.92;1.00;;;8.30;57.40;;;;;;5020121;28;20455;-82
2022/03/08 12:17:17;;;;;;;3.83;1.63;;;8.30;57.30;;;;;;5020534;28;20126;-81
2022/03/08 12:19:52;;;;;;;2.40;1.38;;;8.30;57.30;;;;;;5036581;28;20040;-82
2022/03/08 12:22:21;;;;;;;3.80;1.67;;;8.40;57.20;;;;;;5036507;28;20045;-81
2022/03/08 12:24:51;;;;;;;4.32;1.42;;;8.40;56.90;;;;;;5019857;28;20049;-81
2022/03/08 12:27:20;;;;;;;2.95;1.42;;;8.40;56.90;;;;;;5019787;28;20954;-81
2022/03/08 12:29:58;;;;;;;4.13;1.80;;;8.40;56.90;;;;;;5022319;28;20130;-81
2022/03/08 12:32:32;;;;;;;4.13;1.98;;;8.40;56.50;;;;;;5036387;28;20041;-81
2022/03/08 12:35:08;;;;;;;2.67;1.60;;;8.50;56.30;;;;;;5036334;28;20159;-79
2022/03/08 12:37:48;;;;;;;2.53;1.50;;;8.40;56.00;;;;;;5036269;28;20052;-80
2022/03/08 12:40:19;;;;;;;2.78;1.70;;;8.50;56.00;;;;;;5036123;28;20052;-81
2022/03/08 12:43:15;;;;;;;3.70;1.67;;;8.50;55.70;;;;;;5036191;28;20436;-81
2022/03/08 12:45:48;;;;;;;2.85;1.95;;;8.60;55.30;;;;;;4996580;28;20076;-81
2022/03/08 12:48:21;;;;;;;4.43;2.30;;;8.60;55.30;;;;;;5056268;28;20051;-78
2022/03/08 12:50:52;;;;;;;3.20;1.42;;;8.60;55.20;;;;;;5073865;28;20077;-78
2022/03/08 12:53:24;;;;;;;3.03;1.45;;;8.60;55.00;;;;;;5056084;28;20489;-76
2022/03/08 12:55:53;;;;;;;3.95;1.77;;;8.60;55.20;;;;;;5061208;28;20068;-77
2022/03/08 12:58:28;;;;;;;3.50;1.52;;;8.70;55.10;;;;;;5058446;28;20080;-76
2022/03/08 13:01:00;;;;;;;3.17;1.60;;;8.70;55.00;;;;;;5064832;28;20044;-79
2022/03/08 13:03:32;;;;;;;5.85;2.05;;;8.70;55.10;;;;;;5038668;28;20049;-77
2022/03/08 13:06:02;;;;;;;3.40;1.75;;;8.70;54.90;;;;;;5053941;28;20044;-77
2022/03/08 13:08:31;;;;;;;2.58;1.58;;;8.70;54.90;;;;;;5074838;28;20037;-77
2022/03/08 13:11:01;;;;;;;3.72;1.83;;;8.80;54.90;;;;;;5064710;28;20404;-75